Le Mars, IA

6:54 PM CST on November 20, 2019 (GMT -0600)
Le Mars Municipal

Weather History for KLRJ - October, 2019

Change the Weather History Date:

Saturday, October 12, 2019

  Actual Average Record
Temperature  
Mean Temperature 37 °F -  
Max Temperature 46 °F 66 °F 91 °F (1975)
Min Temperature 28 °F 39 °F 19 °F (2012)
Degree Days  
Heating Degree Days 28    
Moisture  
Dew Point 26 °F    
Average Humidity 67    
Maximum Humidity 81    
Minimum Humidity 37    
Precipitation  
Precipitation 0.00 in - - ()
Sea Level Pressure  
Sea Level Pressure 29.85 in    
Wind  
Wind Speed 13 mph (West)    
Max Wind Speed 28 mph    
Max Gust Speed 40 mph    
Visibility 10 miles    
Events      
Averages and records for this station are not official NWS values.
T = Trace of Precipitation, MM = Missing Value Source: NWS Daily Summary

Daily Weather History Graph

Daily Weather History Graph

Search for Another Location

Airport or City:

Astronomy

Oct. 12, 2019 Rise Set
Actual Time 7:34 AM CDT 6:47 PM CDT
Civil Twilight 7:05 AM CDT 7:15 PM CDT
Nautical Twilight 6:33 AM CDT 7:48 PM CDT
Astronomical Twilight 6:00 AM CDT 8:21 PM CDT
Moon 6:46 PM CDT (10/12) 6:08 AM CDT (10/12)
Length of Visible Light 12h 09m
Length of Day
11h 13m
Waxing Gibbous, 99% of the Moon is Illuminated
Oct 12
Waxing Gibbous
Oct 13
Full
Oct 21
Last Quarter
Oct 27
New
Nov 4
First Quarter

Hourly Weather History & Observations

Time (CDT) Temp. Windchill Dew Point Humidity Pressure Visibility Wind Dir Wind Speed Gust Speed Precip Events Conditions
12:15 AM 30.2 °F 21.9 °F 21.2 °F 69% 29.99 in 10.0 mi SSW 9.2 mph 16.1 mph N/A   Clear
12:35 AM 28.4 °F 19.1 °F 21.2 °F 74% 29.98 in 10.0 mi SW 10.4 mph - N/A   Clear
12:55 AM 28.4 °F 18.5 °F 21.2 °F 74% 29.97 in 10.0 mi SW 11.5 mph 18.4 mph N/A   Clear
1:15 AM 28.4 °F 17.5 °F 21.2 °F 74% 29.96 in 10.0 mi SW 13.8 mph - N/A   Clear
1:35 AM 28.4 °F 18.0 °F 21.2 °F 74% 29.95 in 10.0 mi SW 12.7 mph 19.6 mph N/A   Clear
1:55 AM 28.4 °F 19.1 °F 23.0 °F 80% 29.94 in 10.0 mi SW 10.4 mph - N/A   Clear
2:15 AM 28.4 °F 18.5 °F 23.0 °F 80% 29.94 in 10.0 mi SW 11.5 mph - N/A   Clear
2:35 AM 28.4 °F 19.1 °F 23.0 °F 80% 29.93 in 10.0 mi SW 10.4 mph 16.1 mph N/A   Clear
2:55 AM 28.4 °F 19.1 °F 23.0 °F 80% 29.93 in 10.0 mi SW 10.4 mph 16.1 mph N/A   Clear
3:15 AM 28.4 °F 19.1 °F 23.0 °F 80% 29.92 in 10.0 mi SSW 10.4 mph 17.3 mph N/A   Clear
3:35 AM 28.4 °F 18.5 °F 23.0 °F 80% 29.91 in 10.0 mi SW 11.5 mph 19.6 mph N/A   Clear
3:55 AM 30.2 °F 20.8 °F 23.0 °F 75% 29.90 in 10.0 mi SW 11.5 mph 17.3 mph N/A   Clear
4:15 AM 30.2 °F 20.2 °F 23.0 °F 75% 29.90 in 10.0 mi SW 12.7 mph 18.4 mph N/A   Clear
4:35 AM 30.2 °F 20.8 °F 23.0 °F 75% 29.90 in 10.0 mi SW 11.5 mph - N/A   Clear
4:55 AM 30.2 °F 20.8 °F 23.0 °F 75% 29.89 in 10.0 mi SW 11.5 mph - N/A   Clear
5:15 AM 30.2 °F 21.3 °F 23.0 °F 75% 29.90 in 10.0 mi SW 10.4 mph - N/A   Clear
5:35 AM 30.2 °F 21.3 °F 23.0 °F 75% 29.88 in 10.0 mi SSW 10.4 mph 16.1 mph N/A   Clear
5:55 AM 30.2 °F 20.2 °F 23.0 °F 75% 29.87 in 10.0 mi SSW 12.7 mph - N/A   Clear
6:15 AM 30.2 °F 19.3 °F 23.0 °F 75% 29.87 in 10.0 mi SW 15.0 mph - N/A   Clear
6:35 AM 30.2 °F 20.2 °F 23.0 °F 75% 29.86 in 10.0 mi SW 12.7 mph 20.7 mph N/A   Clear
6:55 AM 30.2 °F 21.3 °F 23.0 °F 75% 29.86 in 10.0 mi SW 10.4 mph 18.4 mph N/A   Clear
7:15 AM 30.2 °F 21.9 °F 23.0 °F 75% 29.86 in 10.0 mi SW 9.2 mph 17.3 mph N/A   Clear
7:35 AM 30.2 °F 21.3 °F 23.0 °F 75% 29.85 in 10.0 mi SW 10.4 mph 17.3 mph N/A   Clear
7:55 AM 32.0 °F 23.0 °F 23.0 °F 69% 29.84 in 10.0 mi SSW 11.5 mph - N/A   Clear
8:15 AM 32.0 °F 23.0 °F 24.8 °F 75% 29.84 in 10.0 mi SW 11.5 mph 23.0 mph N/A   Clear
8:35 AM 33.8 °F 25.8 °F 24.8 °F 70% 29.84 in 10.0 mi SW 10.4 mph 19.6 mph N/A   Clear
8:55 AM 33.8 °F 24.8 °F 24.8 °F 70% 29.82 in 10.0 mi WSW 12.7 mph 20.7 mph N/A   Clear
9:15 AM 37.4 °F 28.9 °F 24.8 °F 60% 29.84 in 10.0 mi West 13.8 mph 21.9 mph N/A   Clear
9:35 AM 37.4 °F 28.9 °F 24.8 °F 60% 29.82 in 10.0 mi WSW 13.8 mph 25.3 mph N/A   Partly Cloudy
9:55 AM 37.4 °F 28.2 °F 24.8 °F 60% 29.81 in 10.0 mi West 16.1 mph 25.3 mph N/A   Partly Cloudy
10:15 AM 39.2 °F 29.8 °F 24.8 °F 56% 29.81 in 10.0 mi West 18.4 mph 25.3 mph N/A   Mostly Cloudy
10:35 AM 39.2 °F 29.8 °F 24.8 °F 56% 29.80 in 10.0 mi West 18.4 mph 25.3 mph N/A   Overcast
10:55 AM 41.0 °F 30.5 °F 23.0 °F 49% 29.80 in 10.0 mi West 26.5 mph 38.0 mph N/A   Overcast
11:15 AM 41.0 °F 30.7 °F 23.0 °F 49% 29.80 in 10.0 mi West 25.3 mph 36.8 mph N/A   Mostly Cloudy
11:35 AM 41.0 °F 30.7 °F 24.8 °F 53% 29.80 in 10.0 mi West 25.3 mph 34.5 mph N/A   Partly Cloudy
11:55 AM 41.0 °F 31.1 °F 24.8 °F 53% 29.80 in 10.0 mi West 23.0 mph 38.0 mph N/A   Partly Cloudy
12:15 PM 42.8 °F 32.7 °F 24.8 °F 49% 29.80 in 10.0 mi West 27.6 mph 40.3 mph N/A   Partly Cloudy
12:35 PM 42.8 °F 34.0 °F 24.8 °F 49% 29.81 in 10.0 mi West 20.7 mph 34.5 mph N/A   Scattered Clouds
12:55 PM 42.8 °F 33.1 °F 23.0 °F 46% 29.80 in 10.0 mi West 25.3 mph 38.0 mph N/A   Scattered Clouds
1:15 PM 42.8 °F 33.8 °F 23.0 °F 46% 29.80 in 10.0 mi West 21.9 mph 27.6 mph N/A   Mostly Cloudy
1:35 PM 44.6 °F 36.4 °F 23.0 °F 43% 29.79 in 10.0 mi West 20.7 mph 29.9 mph N/A   Mostly Cloudy
1:55 PM 44.6 °F 36.4 °F 23.0 °F 43% 29.79 in 10.0 mi West 20.7 mph 34.5 mph N/A   Scattered Clouds
2:15 PM 46.4 °F 39.0 °F 23.0 °F 40% 29.79 in 10.0 mi West 19.6 mph 32.2 mph N/A   Mostly Cloudy
2:35 PM 46.4 °F 38.5 °F 21.2 °F 37% 29.78 in 10.0 mi West 21.9 mph 33.4 mph N/A   Mostly Cloudy
2:55 PM 46.4 °F 37.7 °F 21.2 °F 37% 29.78 in 10.0 mi West 26.5 mph 33.4 mph N/A   Scattered Clouds
3:15 PM 44.6 °F 37.4 °F 24.8 °F 46% 29.78 in 10.0 mi WNW 16.1 mph 24.2 mph N/A   Mostly Cloudy
3:35 PM 44.6 °F 37.4 °F 24.8 °F 46% 29.79 in 10.0 mi WNW 16.1 mph 27.6 mph N/A   Overcast
3:55 PM 42.8 °F 35.4 °F 28.4 °F 57% 29.79 in 10.0 mi NW 15.0 mph 20.7 mph N/A   Overcast
4:15 PM 41.0 °F 34.3 °F 28.4 °F 61% 29.80 in 10.0 mi NW 11.5 mph 17.3 mph N/A   Overcast
4:35 PM 41.0 °F 33.1 °F 28.4 °F 61% 29.81 in 10.0 mi NW 15.0 mph 23.0 mph N/A   Overcast
4:55 PM 39.2 °F 29.8 °F 28.4 °F 65% 29.81 in 10.0 mi WNW 18.4 mph 28.8 mph N/A   Overcast
5:15 PM 39.2 °F 31.6 °F 28.4 °F 65% 29.82 in 10.0 mi WNW 12.7 mph 23.0 mph N/A   Overcast
5:35 PM 39.2 °F 31.2 °F 30.2 °F 70% 29.83 in 10.0 mi WNW 13.8 mph 23.0 mph N/A   Overcast
5:55 PM 39.2 °F 30.5 °F 30.2 °F 70% 29.83 in 10.0 mi NW 16.1 mph 25.3 mph N/A   Overcast
6:15 PM 37.4 °F 29.3 °F 32.0 °F 81% 29.84 in 10.0 mi NW 12.7 mph 19.6 mph N/A   Overcast
6:35 PM 37.4 °F 27.8 °F 32.0 °F 81% 29.84 in 10.0 mi NW 17.3 mph - N/A   Overcast
6:55 PM 37.4 °F 29.8 °F 32.0 °F 81% 29.85 in 10.0 mi NW 11.5 mph 19.6 mph N/A   Overcast
7:15 PM 37.4 °F 28.5 °F 32.0 °F 81% 29.84 in 10.0 mi NW 15.0 mph - N/A   Overcast
7:35 PM 37.4 °F 30.8 °F 32.0 °F 81% 29.85 in 10.0 mi WNW 9.2 mph 19.6 mph N/A   Overcast
7:55 PM 37.4 °F 29.3 °F 32.0 °F 81% 29.85 in 10.0 mi WNW 12.7 mph 19.6 mph N/A   Overcast
8:15 PM 37.4 °F 31.4 °F 32.0 °F 81% 29.86 in 10.0 mi WNW 8.1 mph 16.1 mph N/A   Overcast
8:35 PM 37.4 °F 28.5 °F 30.2 °F 75% 29.85 in 10.0 mi NW 15.0 mph 24.2 mph N/A   Overcast
8:55 PM 37.4 °F 30.3 °F 30.2 °F 75% 29.85 in 10.0 mi WNW 10.4 mph 18.4 mph N/A   Overcast
9:15 PM 37.4 °F 29.3 °F 30.2 °F 75% 29.85 in 10.0 mi WNW 12.7 mph 21.9 mph N/A   Overcast
9:35 PM 37.4 °F 29.3 °F 28.4 °F 70% 29.85 in 10.0 mi WNW 12.7 mph - N/A   Overcast
9:55 PM 37.4 °F 31.4 °F 28.4 °F 70% 29.85 in 10.0 mi WNW 8.1 mph 20.7 mph N/A   Overcast
10:15 PM 37.4 °F 30.8 °F 30.2 °F 75% 29.85 in 10.0 mi WNW 9.2 mph 16.1 mph N/A   Overcast
10:35 PM 37.4 °F 30.3 °F 30.2 °F 75% 29.85 in 10.0 mi West 10.4 mph 16.1 mph N/A   Overcast
10:55 PM 37.4 °F 31.4 °F 30.2 °F 75% 29.85 in 10.0 mi West 8.1 mph 15.0 mph N/A   Overcast
11:15 PM 37.4 °F 31.4 °F 30.2 °F 75% 29.84 in 10.0 mi West 8.1 mph - N/A   Overcast
11:35 PM 37.4 °F 32.8 °F 30.2 °F 75% 29.84 in 10.0 mi West 5.8 mph - N/A   Overcast
11:55 PM 37.4 °F 32.8 °F 32.0 °F 81% 29.84 in 10.0 mi West 5.8 mph - N/A   Overcast